sensor_id;sensor_type;location;lat;lon;timestamp;pressure;altitude;pressure_sealevel;temperature;humidity
3150;BME280;32503;47.748;8.960;2024-01-07T00:00:55;96192.88;;;6.43;70.31
3150;BME280;32503;47.748;8.960;2024-01-07T00:03:22;96185.84;;;6.38;70.60
3150;BME280;32503;47.748;8.960;2024-01-07T00:05:49;96193.13;;;6.38;71.21
3150;BME280;32503;47.748;8.960;2024-01-07T00:08:17;96195.22;;;6.44;70.77
3150;BME280;32503;47.748;8.960;2024-01-07T00:10:44;96192.09;;;6.42;70.85
3150;BME280;32503;47.748;8.960;2024-01-07T00:13:12;96192.78;;;6.39;70.27
3150;BME280;32503;47.748;8.960;2024-01-07T00:15:39;96189.66;;;6.37;70.29
3150;BME280;32503;47.748;8.960;2024-01-07T00:18:06;96188.09;;;6.36;70.76
3150;BME280;32503;47.748;8.960;2024-01-07T00:20:33;96198.41;;;6.34;71.24
3150;BME280;32503;47.748;8.960;2024-01-07T00:23:01;96191.91;;;6.35;71.31
3150;BME280;32503;47.748;8.960;2024-01-07T00:25:28;96193.28;;;6.29;71.24
3150;BME280;32503;47.748;8.960;2024-01-07T00:27:55;96185.66;;;6.31;71.05
3150;BME280;32503;47.748;8.960;2024-01-07T00:30:23;96188.78;;;6.33;71.36
3150;BME280;32503;47.748;8.960;2024-01-07T00:32:50;96181.44;;;6.30;70.37
3150;BME280;32503;47.748;8.960;2024-01-07T00:35:17;96187.00;;;6.37;70.73
3150;BME280;32503;47.748;8.960;2024-01-07T00:37:44;96194.34;;;6.40;70.99
3150;BME280;32503;47.748;8.960;2024-01-07T00:40:12;96185.84;;;6.38;70.11
3150;BME280;32503;47.748;8.960;2024-01-07T00:42:39;96187.66;;;6.34;70.52
3150;BME280;32503;47.748;8.960;2024-01-07T00:45:08;96187.91;;;6.29;70.76
3150;BME280;32503;47.748;8.960;2024-01-07T00:47:37;96183.22;;;6.26;70.38
3150;BME280;32503;47.748;8.960;2024-01-07T00:50:05;96184.88;;;6.31;70.76
3150;BME280;32503;47.748;8.960;2024-01-07T00:52:32;96185.66;;;6.31;70.92
3150;BME280;32503;47.748;8.960;2024-01-07T00:54:59;96182.53;;;6.29;70.47
3150;BME280;32503;47.748;8.960;2024-01-07T00:57:28;96184.69;;;6.23;71.24
3150;BME280;32503;47.748;8.960;2024-01-07T00:59:55;96188.59;;;6.26;70.89
3150;BME280;32503;47.748;8.960;2024-01-07T01:02:22;96191.28;;;6.26;70.34
3150;BME280;32503;47.748;8.960;2024-01-07T01:04:50;96189.28;;;6.23;70.76
3150;BME280;32503;47.748;8.960;2024-01-07T01:07:17;96190.16;;;6.27;70.46
3150;BME280;32503;47.748;8.960;2024-01-07T01:09:44;96190.16;;;6.27;70.15
3150;BME280;32503;47.748;8.960;2024-01-07T01:12:11;96192.97;;;6.18;71.03
3150;BME280;32503;47.748;8.960;2024-01-07T01:14:38;96193.31;;;6.17;71.22
3150;BME280;32503;47.748;8.960;2024-01-07T01:17:05;96187.72;;;6.22;70.72
3150;BME280;32503;47.748;8.960;2024-01-07T01:19:32;96194.91;;;6.18;70.22
3150;BME280;32503;47.748;8.960;2024-01-07T01:22:01;96194.44;;;6.16;71.40
3150;BME280;32503;47.748;8.960;2024-01-07T01:24:28;96202.06;;;6.14;71.21
3150;BME280;32503;47.748;8.960;2024-01-07T01:26:55;96198.84;;;6.08;71.17
3150;BME280;32503;47.748;8.960;2024-01-07T01:29:22;96208.78;;;6.07;71.21
3150;BME280;32503;47.748;8.960;2024-01-07T01:31:49;96206.88;;;6.08;70.68
3150;BME280;32503;47.748;8.960;2024-01-07T01:34:16;96208.34;;;6.05;71.30
3150;BME280;32503;47.748;8.960;2024-01-07T01:36:43;96205.22;;;6.03;70.51
3150;BME280;32503;47.748;8.960;2024-01-07T01:39:11;96211.03;;;6.05;71.00
3150;BME280;32503;47.748;8.960;2024-01-07T01:41:39;96206.78;;;6.04;71.03
3150;BME280;32503;47.748;8.960;2024-01-07T01:44:06;96206.44;;;6.06;70.83
3150;BME280;32503;47.748;8.960;2024-01-07T01:46:33;96196.81;;;6.05;71.16
3150;BME280;32503;47.748;8.960;2024-01-07T01:49:01;96208.78;;;6.07;70.28
3150;BME280;32503;47.748;8.960;2024-01-07T01:51:28;96202.53;;;6.03;70.98
3150;BME280;32503;47.748;8.960;2024-01-07T01:53:55;96206.25;;;5.99;70.92
3150;BME280;32503;47.748;8.960;2024-01-07T01:56:26;96202.09;;;6.01;70.75
3150;BME280;32503;47.748;8.960;2024-01-07T01:58:54;96206.69;;;6.01;70.70
3150;BME280;32503;47.748;8.960;2024-01-07T02:01:22;96202.44;;;6.00;71.73
3150;BME280;32503;47.748;8.960;2024-01-07T02:03:49;96204.00;;;6.01;71.12
3150;BME280;32503;47.748;8.960;2024-01-07T02:06:17;96205.69;;;6.05;70.95
3150;BME280;32503;47.748;8.960;2024-01-07T02:08:44;96208.69;;;6.04;71.59
3150;BME280;32503;47.748;8.960;2024-01-07T02:11:19;96210.03;;;5.98;72.06
3150;BME280;32503;47.748;8.960;2024-01-07T02:13:48;96207.69;;;5.96;71.30
3150;BME280;32503;47.748;8.960;2024-01-07T02:16:15;96212.06;;;6.01;71.98
3150;BME280;32503;47.748;8.960;2024-01-07T02:18:44;96210.13;;;6.01;71.63
3150;BME280;32503;47.748;8.960;2024-01-07T02:21:13;96216.66;;;6.00;71.21
3150;BME280;32503;47.748;8.960;2024-01-07T02:23:40;96211.72;;;6.02;72.01
3150;BME280;32503;47.748;8.960;2024-01-07T02:26:09;96213.97;;;6.00;71.78
3150;BME280;32503;47.748;8.960;2024-01-07T02:28:36;96213.25;;;6.03;71.26
3150;BME280;32503;47.748;8.960;2024-01-07T02:31:03;96216.75;;;6.04;71.45
3150;BME280;32503;47.748;8.960;2024-01-07T02:33:30;96211.03;;;6.05;72.01
3150;BME280;32503;47.748;8.960;2024-01-07T02:35:57;96209.03;;;6.02;71.31
3150;BME280;32503;47.748;8.960;2024-01-07T02:38:24;96213.25;;;6.03;71.14
3150;BME280;32503;47.748;8.960;2024-01-07T02:40:51;96208.00;;;6.07;72.02
3150;BME280;32503;47.748;8.960;2024-01-07T02:43:20;96203.09;;;6.09;71.59
3150;BME280;32503;47.748;8.960;2024-01-07T02:45:47;96202.75;;;6.11;71.18
3150;BME280;32503;47.748;8.960;2024-01-07T02:48:14;96209.47;;;6.04;71.49
3150;BME280;32503;47.748;8.960;2024-01-07T02:50:41;96201.84;;;6.06;71.78
3150;BME280;32503;47.748;8.960;2024-01-07T02:53:08;96208.34;;;6.05;70.97
3150;BME280;32503;47.748;8.960;2024-01-07T02:55:36;96203.31;;;6.04;71.74
3150;BME280;32503;47.748;8.960;2024-01-07T02:58:02;96201.41;;;6.04;71.52
3150;BME280;32503;47.748;8.960;2024-01-07T03:00:31;96202.44;;;6.00;71.64
3150;BME280;32503;47.748;8.960;2024-01-07T03:02:58;96203.78;;;5.94;71.60
3150;BME280;32503;47.748;8.960;2024-01-07T03:05:25;96203.13;;;5.97;71.64
3150;BME280;32503;47.748;8.960;2024-01-07T03:07:55;96192.16;;;5.89;72.35
3150;BME280;32503;47.748;8.960;2024-01-07T03:10:22;96209.69;;;5.99;72.63
3150;BME280;32503;47.748;8.960;2024-01-07T03:12:49;96204.78;;;6.01;71.87
3150;BME280;32503;47.748;8.960;2024-01-07T03:15:15;96204.78;;;6.01;72.15
3150;BME280;32503;47.748;8.960;2024-01-07T03:17:44;96204.78;;;6.01;71.99
3150;BME280;32503;47.748;8.960;2024-01-07T03:20:11;96202.19;;;6.05;72.70
3150;BME280;32503;47.748;8.960;2024-01-07T03:22:38;96208.34;;;6.05;71.79
3150;BME280;32503;47.748;8.960;2024-01-07T03:25:07;96201.84;;;6.06;72.22
3150;BME280;32503;47.748;8.960;2024-01-07T03:27:34;96205.69;;;6.05;71.91
3150;BME280;32503;47.748;8.960;2024-01-07T03:30:01;96203.00;;;6.05;72.22
3150;BME280;32503;47.748;8.960;2024-01-07T03:32:28;96205.69;;;6.05;72.86
3150;BME280;32503;47.748;8.960;2024-01-07T03:34:57;96206.34;;;6.02;72.62
3150;BME280;32503;47.748;8.960;2024-01-07T03:37:24;96210.84;;;5.98;72.82
3150;BME280;32503;47.748;8.960;2024-01-07T03:39:51;96210.84;;;5.98;73.19
3150;BME280;32503;47.748;8.960;2024-01-07T03:42:18;96207.69;;;5.96;72.50
3150;BME280;32503;47.748;8.960;2024-01-07T03:44:45;96209.25;;;5.97;73.40
3150;BME280;32503;47.748;8.960;2024-01-07T03:47:12;96204.66;;;5.98;73.09
3150;BME280;32503;47.748;8.960;2024-01-07T03:49:39;96209.91;;;5.94;72.79
3150;BME280;32503;47.748;8.960;2024-01-07T03:52:08;96215.28;;;5.94;73.31
3150;BME280;32503;47.748;8.960;2024-01-07T03:54:35;96208.59;;;5.88;72.86
3150;BME280;32503;47.748;8.960;2024-01-07T03:57:02;96211.63;;;5.86;73.99
3150;BME280;32503;47.748;8.960;2024-01-07T03:59:29;96206.59;;;5.85;73.63
3150;BME280;32503;47.748;8.960;2024-01-07T04:01:57;96203.22;;;5.88;73.73
3150;BME280;32503;47.748;8.960;2024-01-07T04:04:24;96213.06;;;5.96;72.72
3150;BME280;32503;47.748;8.960;2024-01-07T04:06:51;96207.13;;;5.91;73.33
3150;BME280;32503;47.748;8.960;2024-01-07T04:09:19;96210.38;;;5.84;73.63
3150;BME280;32503;47.748;8.960;2024-01-07T04:11:47;96206.03;;;5.79;73.23
3150;BME280;32503;47.748;8.960;2024-01-07T04:14:15;96209.06;;;5.78;74.11
3150;BME280;32503;47.748;8.960;2024-01-07T04:16:42;96214.00;;;5.76;73.87
3150;BME280;32503;47.748;8.960;2024-01-07T04:19:09;96207.50;;;5.77;73.47
3150;BME280;32503;47.748;8.960;2024-01-07T04:21:36;96211.75;;;5.78;74.04
3150;BME280;32503;47.748;8.960;2024-01-07T04:24:04;96211.84;;;5.81;73.20
3150;BME280;32503;47.748;8.960;2024-01-07T04:26:33;96220.22;;;5.80;73.65
3150;BME280;32503;47.748;8.960;2024-01-07T04:28:59;96219.66;;;5.86;73.89
3150;BME280;32503;47.748;8.960;2024-01-07T04:31:26;96219.66;;;5.86;73.51
3150;BME280;32503;47.748;8.960;2024-01-07T04:33:53;96215.06;;;5.87;73.04
3150;BME280;32503;47.748;8.960;2024-01-07T04:36:20;96220.44;;;5.87;73.16
3150;BME280;32503;47.748;8.960;2024-01-07T04:38:47;96217.31;;;5.85;73.45
3150;BME280;32503;47.748;8.960;2024-01-07T04:41:14;96220.09;;;5.88;73.25
3150;BME280;32503;47.748;8.960;2024-01-07T04:43:44;96219.75;;;5.90;72.85
3150;BME280;32503;47.748;8.960;2024-01-07T04:46:11;96220.44;;;5.87;73.24
3150;BME280;32503;47.748;8.960;2024-01-07T04:48:38;96219.00;;;5.89;73.17
3150;BME280;32503;47.748;8.960;2024-01-07T04:51:06;96222.00;;;5.88;73.00
3150;BME280;32503;47.748;8.960;2024-01-07T04:53:33;96219.31;;;5.88;73.60
3150;BME280;32503;47.748;8.960;2024-01-07T04:56:00;96221.31;;;5.91;73.37
3150;BME280;32503;47.748;8.960;2024-01-07T04:58:28;96225.56;;;5.92;73.56
3150;BME280;32503;47.748;8.960;2024-01-07T05:00:56;96226.69;;;5.91;72.94
3150;BME280;32503;47.748;8.960;2024-01-07T05:03:23;96236.19;;;5.88;73.98
3150;BME280;32503;47.748;8.960;2024-01-07T05:05:50;96225.59;;;5.80;73.50
3150;BME280;32503;47.748;8.960;2024-01-07T05:08:17;96238.78;;;5.85;73.46
3150;BME280;32503;47.748;8.960;2024-01-07T05:10:44;96240.44;;;5.89;73.76
3150;BME280;32503;47.748;8.960;2024-01-07T05:13:11;96238.09;;;5.88;73.17
3150;BME280;32503;47.748;8.960;2024-01-07T05:15:39;96236.53;;;5.87;73.27
3150;BME280;32503;47.748;8.960;2024-01-07T05:18:08;96239.22;;;5.87;73.35
3150;BME280;32503;47.748;8.960;2024-01-07T05:20:36;96236.63;;;5.91;73.82
3150;BME280;32503;47.748;8.960;2024-01-07T05:23:03;96245.94;;;5.93;73.21
3150;BME280;32503;47.748;8.960;2024-01-07T05:25:30;96249.03;;;5.95;73.78
3150;BME280;32503;47.748;8.960;2024-01-07T05:27:57;96243.47;;;5.88;73.94
3150;BME280;32503;47.748;8.960;2024-01-07T05:30:24;96235.00;;;5.86;73.82
3150;BME280;32503;47.748;8.960;2024-01-07T05:32:51;96245.81;;;5.89;73.66
3150;BME280;32503;47.748;8.960;2024-01-07T05:35:20;96239.66;;;5.89;73.36
3150;BME280;32503;47.748;8.960;2024-01-07T05:37:47;96246.50;;;5.86;73.68
3150;BME280;32503;47.748;8.960;2024-01-07T05:40:14;96246.50;;;5.86;73.16
3150;BME280;32503;47.748;8.960;2024-01-07T05:42:41;96255.75;;;5.89;73.69
3150;BME280;32503;47.748;8.960;2024-01-07T05:45:09;96260.66;;;5.87;73.89
3150;BME280;32503;47.748;8.960;2024-01-07T05:47:36;96259.13;;;5.86;73.11
3150;BME280;32503;47.748;8.960;2024-01-07T05:50:04;96262.03;;;5.93;72.98
3150;BME280;32503;47.748;8.960;2024-01-07T05:52:32;96259.47;;;5.97;72.54
3150;BME280;32503;47.748;8.960;2024-01-07T05:54:59;96269.28;;;5.93;73.41
3150;BME280;32503;47.748;8.960;2024-01-07T05:57:26;96270.06;;;5.93;72.96
3150;BME280;32503;47.748;8.960;2024-01-07T05:59:53;96270.72;;;5.90;73.84
3150;BME280;32503;47.748;8.960;2024-01-07T06:02:20;96261.81;;;5.86;73.01
3150;BME280;32503;47.748;8.960;2024-01-07T06:04:48;96274.41;;;5.85;74.13
3150;BME280;32503;47.748;8.960;2024-01-07T06:07:15;96274.97;;;5.91;73.41
3150;BME280;32503;47.748;8.960;2024-01-07T06:09:44;96275.66;;;5.88;73.71
3150;BME280;32503;47.748;8.960;2024-01-07T06:12:11;96268.94;;;5.94;73.59
3150;BME280;32503;47.748;8.960;2024-01-07T06:14:38;96277.53;;;5.87;73.75
3150;BME280;32503;47.748;8.960;2024-01-07T06:17:05;96283.81;;;5.79;74.54
3150;BME280;32503;47.748;8.960;2024-01-07T06:19:32;96282.91;;;5.75;74.51
3150;BME280;32503;47.748;8.960;2024-01-07T06:21:59;96277.78;;;5.82;74.21
3150;BME280;32503;47.748;8.960;2024-01-07T06:24:26;96284.38;;;5.85;74.38
3150;BME280;32503;47.748;8.960;2024-01-07T06:26:55;96282.69;;;5.80;74.71
3150;BME280;32503;47.748;8.960;2024-01-07T06:29:22;96287.72;;;5.82;73.95
3150;BME280;32503;47.748;8.960;2024-01-07T06:31:49;96289.94;;;5.92;73.51
3150;BME280;32503;47.748;8.960;2024-01-07T06:34:16;96289.28;;;5.95;73.44
3150;BME280;32503;47.748;8.960;2024-01-07T06:36:43;96286.75;;;5.99;73.95
3150;BME280;32503;47.748;8.960;2024-01-07T06:39:10;96295.75;;;5.94;73.74
3150;BME280;32503;47.748;8.960;2024-01-07T06:41:38;96302.41;;;5.97;72.96
3150;BME280;32503;47.748;8.960;2024-01-07T06:44:06;96308.19;;;5.99;73.36
3150;BME280;32503;47.748;8.960;2024-01-07T06:46:33;96302.06;;;5.98;73.53
3150;BME280;32503;47.748;8.960;2024-01-07T06:49:01;96311.22;;;5.97;73.70
3150;BME280;32503;47.748;8.960;2024-01-07T06:51:28;96313.44;;;5.95;73.91
3150;BME280;32503;47.748;8.960;2024-01-07T06:53:55;96322.47;;;5.91;73.56
3150;BME280;32503;47.748;8.960;2024-01-07T06:56:22;96303.16;;;5.85;73.77
3150;BME280;32503;47.748;8.960;2024-01-07T06:58:50;96314.66;;;5.85;73.75
3150;BME280;32503;47.748;8.960;2024-01-07T07:01:20;96308.97;;;5.87;73.75
3150;BME280;32503;47.748;8.960;2024-01-07T07:03:48;96321.16;;;5.84;74.37
3150;BME280;32503;47.748;8.960;2024-01-07T07:06:16;96318.38;;;5.81;74.31
3150;BME280;32503;47.748;8.960;2024-01-07T07:08:43;96316.13;;;5.83;74.24
3150;BME280;32503;47.748;8.960;2024-01-07T07:11:10;96315.47;;;5.86;74.04
3150;BME280;32503;47.748;8.960;2024-01-07T07:13:37;96329.53;;;5.83;74.91
3150;BME280;32503;47.748;8.960;2024-01-07T07:16:06;96315.69;;;5.81;74.84
3150;BME280;32503;47.748;8.960;2024-01-07T07:18:35;96318.16;;;5.86;74.60
3150;BME280;32503;47.748;8.960;2024-01-07T07:21:02;96327.75;;;5.87;74.65
3150;BME280;32503;47.748;8.960;2024-01-07T07:23:29;96327.75;;;5.87;74.31
3150;BME280;32503;47.748;8.960;2024-01-07T07:25:56;96330.66;;;5.82;74.29
3150;BME280;32503;47.748;8.960;2024-01-07T07:28:23;96333.66;;;5.80;74.24
3150;BME280;32503;47.748;8.960;2024-01-07T07:30:50;96336.66;;;5.79;75.13
3150;BME280;32503;47.748;8.960;2024-01-07T07:33:17;96335.78;;;5.87;74.44
3150;BME280;32503;47.748;8.960;2024-01-07T07:35:46;96338.47;;;5.87;73.90
3150;BME280;32503;47.748;8.960;2024-01-07T07:38:13;96343.06;;;5.86;74.52
3150;BME280;32503;47.748;8.960;2024-01-07T07:40:40;96345.41;;;5.88;74.02
3150;BME280;32503;47.748;8.960;2024-01-07T07:43:08;96350.44;;;5.89;74.02
3150;BME280;32503;47.748;8.960;2024-01-07T07:45:35;96347.88;;;5.93;74.18
3150;BME280;32503;47.748;8.960;2024-01-07T07:48:03;96354.78;;;5.94;74.53
3150;BME280;32503;47.748;8.960;2024-01-07T07:50:31;96355.25;;;5.96;74.17
3150;BME280;32503;47.748;8.960;2024-01-07T07:52:59;96362.66;;;5.99;73.89
3150;BME280;32503;47.748;8.960;2024-01-07T07:55:26;96359.19;;;5.99;74.07
3150;BME280;32503;47.748;8.960;2024-01-07T07:57:54;96361.53;;;6.00;73.88
3150;BME280;32503;47.748;8.960;2024-01-07T08:00:21;96360.28;;;5.98;73.89
3150;BME280;32503;47.748;8.960;2024-01-07T08:02:48;96361.09;;;5.98;74.08
3150;BME280;32503;47.748;8.960;2024-01-07T08:05:15;96365.31;;;5.99;74.22
3150;BME280;32503;47.748;8.960;2024-01-07T08:07:42;96351.91;;;5.99;73.49
3150;BME280;32503;47.748;8.960;2024-01-07T08:10:11;96360.41;;;6.01;74.01
3150;BME280;32503;47.748;8.960;2024-01-07T08:12:38;96366.09;;;6.00;73.34
3150;BME280;32503;47.748;8.960;2024-01-07T08:15:07;96366.22;;;6.03;73.20
3150;BME280;32503;47.748;8.960;2024-01-07T08:17:34;96368.88;;;6.03;73.36
3150;BME280;32503;47.748;8.960;2024-01-07T08:20:02;96366.69;;;6.05;73.66
3150;BME280;32503;47.748;8.960;2024-01-07T08:22:30;96372.50;;;6.07;73.12
3150;BME280;32503;47.748;8.960;2024-01-07T08:24:57;96366.31;;;6.07;72.97
3150;BME280;32503;47.748;8.960;2024-01-07T08:27:25;96375.63;;;6.10;73.81
3150;BME280;32503;47.748;8.960;2024-01-07T08:29:53;96376.50;;;6.14;73.37
3150;BME280;32503;47.748;8.960;2024-01-07T08:32:20;96375.06;;;6.16;73.33
3150;BME280;32503;47.748;8.960;2024-01-07T08:34:48;96377.19;;;6.23;73.28
3150;BME280;32503;47.748;8.960;2024-01-07T08:37:15;96378.41;;;6.25;72.76
3150;BME280;32503;47.748;8.960;2024-01-07T08:39:42;96376.72;;;6.21;72.84
3150;BME280;32503;47.748;8.960;2024-01-07T08:42:09;96374.25;;;6.28;72.38
3150;BME280;32503;47.748;8.960;2024-01-07T08:44:38;96375.03;;;6.29;72.98
3150;BME280;32503;47.748;8.960;2024-01-07T08:47:05;96382.88;;;6.34;72.99
3150;BME280;32503;47.748;8.960;2024-01-07T08:49:32;96390.22;;;6.37;72.83
3150;BME280;32503;47.748;8.960;2024-01-07T08:52:00;96385.19;;;6.35;72.71
3150;BME280;32503;47.748;8.960;2024-01-07T08:54:27;96389.88;;;6.38;72.14
3150;BME280;32503;47.748;8.960;2024-01-07T08:56:54;96391.34;;;6.36;72.33
3150;BME280;32503;47.748;8.960;2024-01-07T08:59:21;96390.34;;;6.28;72.52
3150;BME280;32503;47.748;8.960;2024-01-07T09:01:50;96393.94;;;6.32;72.52
3150;BME280;32503;47.748;8.960;2024-01-07T09:04:17;96400.97;;;6.37;72.55
3150;BME280;32503;47.748;8.960;2024-01-07T09:06:44;96395.69;;;6.40;72.66
3150;BME280;32503;47.748;8.960;2024-01-07T09:09:11;96401.53;;;6.42;72.12
3150;BME280;32503;47.748;8.960;2024-01-07T09:11:38;96406.66;;;6.48;72.33
3150;BME280;32503;47.748;8.960;2024-01-07T09:14:05;96400.63;;;6.38;72.17
3150;BME280;32503;47.748;8.960;2024-01-07T09:16:33;96407.56;;;6.39;72.12
3150;BME280;32503;47.748;8.960;2024-01-07T09:19:02;96409.13;;;6.40;73.27
3150;BME280;32503;47.748;8.960;2024-01-07T09:21:29;96411.16;;;6.43;73.16
3150;BME280;32503;47.748;8.960;2024-01-07T09:23:56;96413.38;;;6.41;72.94
3150;BME280;32503;47.748;8.960;2024-01-07T09:26:23;96408.78;;;6.42;72.68
3150;BME280;32503;47.748;8.960;2024-01-07T09:28:50;96417.66;;;6.42;73.29
3150;BME280;32503;47.748;8.960;2024-01-07T09:31:17;96418.53;;;6.47;72.92
3150;BME280;32503;47.748;8.960;2024-01-07T09:33:44;96415.94;;;6.50;72.76
3150;BME280;32503;47.748;8.960;2024-01-07T09:36:13;96414.94;;;6.55;72.33
3150;BME280;32503;47.748;8.960;2024-01-07T09:38:42;96423.09;;;6.58;72.60
3150;BME280;32503;47.748;8.960;2024-01-07T09:41:10;96422.06;;;6.63;72.18
3150;BME280;32503;47.748;8.960;2024-01-07T09:43:37;96426.00;;;6.66;71.74
3150;BME280;32503;47.748;8.960;2024-01-07T09:46:04;96421.41;;;6.66;71.71
3150;BME280;32503;47.748;8.960;2024-01-07T09:48:31;96426.53;;;6.71;72.16
3150;BME280;32503;47.748;8.960;2024-01-07T09:51:01;96417.34;;;6.72;71.56
3150;BME280;32503;47.748;8.960;2024-01-07T09:53:31;96414.66;;;6.72;72.18
3150;BME280;32503;47.748;8.960;2024-01-07T09:56:10;96413.13;;;6.71;72.43
3150;BME280;32503;47.748;8.960;2024-01-07T09:58:40;96425.41;;;6.72;70.91
3150;BME280;32503;47.748;8.960;2024-01-07T10:01:08;96422.28;;;6.70;71.88
3150;BME280;32503;47.748;8.960;2024-01-07T10:03:35;96416.25;;;6.73;72.22
3150;BME280;32503;47.748;8.960;2024-01-07T10:06:03;96430.09;;;6.75;71.25
3150;BME280;32503;47.748;8.960;2024-01-07T10:08:32;96414.75;;;6.76;71.20
3150;BME280;32503;47.748;8.960;2024-01-07T10:10:59;96420.94;;;6.76;70.64
3150;BME280;32503;47.748;8.960;2024-01-07T10:13:27;96420.13;;;6.76;70.19
3150;BME280;32503;47.748;8.960;2024-01-07T10:15:54;96419.03;;;6.77;70.00
3150;BME280;32503;47.748;8.960;2024-01-07T10:18:21;96417.59;;;6.79;70.36
3150;BME280;32503;47.748;8.960;2024-01-07T10:20:48;96423.09;;;6.71;69.23
3150;BME280;32503;47.748;8.960;2024-01-07T10:23:19;96421.50;;;6.70;69.49
3150;BME280;32503;47.748;8.960;2024-01-07T10:25:47;96422.72;;;6.72;69.21
3150;BME280;32503;47.748;8.960;2024-01-07T10:28:14;96426.22;;;6.73;69.17
3150;BME280;32503;47.748;8.960;2024-01-07T10:30:49;96424.72;;;6.75;69.54
3150;BME280;32503;47.748;8.960;2024-01-07T10:33:17;96429.00;;;6.76;69.14
3150;BME280;32503;47.748;8.960;2024-01-07T10:35:52;96419.47;;;6.79;69.30
3150;BME280;32503;47.748;8.960;2024-01-07T10:38:20;96415.34;;;6.81;68.65
3150;BME280;32503;47.748;8.960;2024-01-07T10:40:50;96414.91;;;6.79;69.10
3150;BME280;32503;47.748;8.960;2024-01-07T10:43:20;96414.09;;;6.79;69.28
3150;BME280;32503;47.748;8.960;2024-01-07T10:45:48;96411.94;;;6.84;69.39
3150;BME280;32503;47.748;8.960;2024-01-07T10:48:17;96415.09;;;6.87;69.84
3150;BME280;32503;47.748;8.960;2024-01-07T10:50:46;96415.97;;;6.91;69.76
3150;BME280;32503;47.748;8.960;2024-01-07T10:53:20;96413.53;;;6.86;69.41
3150;BME280;32503;47.748;8.960;2024-01-07T10:55:54;96415.09;;;6.87;68.92
3150;BME280;32503;47.748;8.960;2024-01-07T10:58:26;96411.16;;;6.84;69.30
3150;BME280;32503;47.748;8.960;2024-01-07T11:00:54;96409.25;;;6.84;68.78
3150;BME280;32503;47.748;8.960;2024-01-07T11:03:33;96412.31;;;6.83;69.19
3150;BME280;32503;47.748;8.960;2024-01-07T11:06:09;96408.81;;;6.82;68.72
3150;BME280;32503;47.748;8.960;2024-01-07T11:08:45;96413.53;;;6.86;68.31
3150;BME280;32503;47.748;8.960;2024-01-07T11:11:18;96412.97;;;6.80;68.97
3150;BME280;32503;47.748;8.960;2024-01-07T11:13:49;96415.78;;;6.83;68.52
3150;BME280;32503;47.748;8.960;2024-01-07T11:16:42;96408.16;;;6.86;67.99
3150;BME280;32503;47.748;8.960;2024-01-07T11:19:13;96408.72;;;6.79;68.90
3150;BME280;32503;47.748;8.960;2024-01-07T11:21:41;96405.69;;;6.80;68.46
3150;BME280;32503;47.748;8.960;2024-01-07T11:24:08;96408.38;;;6.80;67.61
3150;BME280;32503;47.748;8.960;2024-01-07T11:26:36;96403.44;;;6.82;67.39
3150;BME280;32503;47.748;8.960;2024-01-07T11:29:04;96401.09;;;6.81;67.29
3150;BME280;32503;47.748;8.960;2024-01-07T11:31:46;96409.97;;;6.81;67.27
3150;BME280;32503;47.748;8.960;2024-01-07T11:34:41;96405.59;;;6.77;67.79
3150;BME280;32503;47.748;8.960;2024-01-07T11:37:11;96395.41;;;6.70;67.30
3150;BME280;32503;47.748;8.960;2024-01-07T11:39:42;96402.56;;;6.78;67.00
3150;BME280;32503;47.748;8.960;2024-01-07T11:42:10;96398.44;;;6.69;68.03
3150;BME280;32503;47.748;8.960;2024-01-07T11:44:45;96403.69;;;6.77;67.92
3150;BME280;32503;47.748;8.960;2024-01-07T11:47:13;96342.00;;;6.40;67.27
3150;BME280;32503;47.748;8.960;2024-01-07T11:49:40;96413.41;;;6.82;67.25
3150;BME280;32503;47.748;8.960;2024-01-07T11:52:08;96401.34;;;6.76;67.20
3150;BME280;32503;47.748;8.960;2024-01-07T11:54:36;96407.47;;;6.89;68.26
3150;BME280;32503;47.748;8.960;2024-01-07T11:57:04;96405.66;;;6.93;67.61
3150;BME280;32503;47.748;8.960;2024-01-07T11:59:33;96408.09;;;6.98;67.68
3150;BME280;32503;47.748;8.960;2024-01-07T12:02:01;96374.31;;;6.84;67.69
3150;BME280;32503;47.748;8.960;2024-01-07T12:04:30;96397.03;;;6.99;68.03
3150;BME280;32503;47.748;8.960;2024-01-07T12:06:57;96400.81;;;6.98;67.29
3150;BME280;32503;47.748;8.960;2024-01-07T12:09:24;96392.41;;;7.00;67.70
3150;BME280;32503;47.748;8.960;2024-01-07T12:11:53;96403.16;;;7.00;66.94
3150;BME280;32503;47.748;8.960;2024-01-07T12:14:20;96403.16;;;7.00;65.77
3150;BME280;32503;47.748;8.960;2024-01-07T12:16:49;96409.91;;;6.94;66.08
3150;BME280;32503;47.748;8.960;2024-01-07T12:19:16;96409.34;;;6.88;65.36
3150;BME280;32503;47.748;8.960;2024-01-07T12:21:43;96408.38;;;6.80;65.08
3150;BME280;32503;47.748;8.960;2024-01-07T12:24:10;96423.84;;;6.71;65.53
3150;BME280;32503;47.748;8.960;2024-01-07T12:26:39;96419.94;;;6.69;65.54
3150;BME280;32503;47.748;8.960;2024-01-07T12:29:06;96418.63;;;6.62;65.69
3150;BME280;32503;47.748;8.960;2024-01-07T12:31:34;96413.47;;;6.57;65.80
3150;BME280;32503;47.748;8.960;2024-01-07T12:34:02;96416.59;;;6.59;65.46
3150;BME280;32503;47.748;8.960;2024-01-07T12:36:30;96409.22;;;6.56;66.59
3150;BME280;32503;47.748;8.960;2024-01-07T12:38:57;96418.75;;;6.54;66.77
3150;BME280;32503;47.748;8.960;2024-01-07T12:41:24;96420.78;;;6.44;66.63
3150;BME280;32503;47.748;8.960;2024-01-07T12:43:51;96418.44;;;6.43;66.40
3150;BME280;32503;47.748;8.960;2024-01-07T12:46:19;96416.28;;;6.49;65.82
3150;BME280;32503;47.748;8.960;2024-01-07T12:48:46;96426.25;;;6.48;65.69
3150;BME280;32503;47.748;8.960;2024-01-07T12:51:14;96421.88;;;6.43;65.77
3150;BME280;32503;47.748;8.960;2024-01-07T12:53:41;96420.56;;;6.37;65.66
3150;BME280;32503;47.748;8.960;2024-01-07T12:56:09;96386.13;;;6.15;66.48
3150;BME280;32503;47.748;8.960;2024-01-07T12:58:36;96418.97;;;6.36;66.01
3150;BME280;32503;47.748;8.960;2024-01-07T13:01:03;96429.50;;;6.29;65.91
3150;BME280;32503;47.748;8.960;2024-01-07T13:03:30;96440.25;;;6.29;65.97
3150;BME280;32503;47.748;8.960;2024-01-07T13:05:57;96433.28;;;6.28;66.13
3150;BME280;32503;47.748;8.960;2024-01-07T13:08:26;96432.41;;;6.24;66.35
3150;BME280;32503;47.748;8.960;2024-01-07T13:10:54;96426.81;;;6.17;65.84
3150;BME280;32503;47.748;8.960;2024-01-07T13:13:21;96434.88;;;6.17;65.21
3150;BME280;32503;47.748;8.960;2024-01-07T13:15:48;96446.59;;;6.12;64.68
3150;BME280;32503;47.748;8.960;2024-01-07T13:18:16;96446.28;;;6.14;64.11
3150;BME280;32503;47.748;8.960;2024-01-07T13:20:44;96447.06;;;6.14;64.91
3150;BME280;32503;47.748;8.960;2024-01-07T13:23:11;96450.41;;;6.11;64.22
3150;BME280;32503;47.748;8.960;2024-01-07T13:25:39;96450.53;;;6.02;64.64